Time;durP1;ratioP1;P1;durP2;ratioP2;P2;SDS_P1;SDS_P2;PMS_P1;PMS_P2;Temp;Humidity;BMP_temperature;BMP_pressure;BME280_temperature;BME280_humidity;BME280_pressure;Samples;Min_cycle;Max_cycle;Signal;HPM_P1;HPM_P2
2022/08/10 00:01:33;;;;;;;10.60;10.30;;;19.70;99.90;;;;;;5136893;27;20251;-78
2022/08/10 00:04:00;;;;;;;10.55;10.25;;;19.70;99.90;;;;;;5137075;27;20220;-77
2022/08/10 00:06:28;;;;;;;10.65;10.35;;;19.60;99.90;;;;;;5136157;27;20232;-76
2022/08/10 00:08:56;;;;;;;10.60;10.30;;;19.50;99.90;;;;;;5137508;27;20310;-78
2022/08/10 00:11:24;;;;;;;10.90;10.60;;;19.50;99.90;;;;;;5137615;27;20224;-79
2022/08/10 00:13:53;;;;;;;10.60;10.30;;;19.50;99.90;;;;;;5137236;27;20234;-76
2022/08/10 00:16:21;;;;;;;10.60;10.30;;;19.40;99.90;;;;;;5135944;27;20330;-76
2022/08/10 00:18:50;;;;;;;10.52;10.23;;;19.30;99.90;;;;;;5136997;27;20252;-76
2022/08/10 00:21:17;;;;;;;10.68;10.38;;;19.20;99.90;;;;;;5137770;27;20352;-76
2022/08/10 00:23:45;;;;;;;10.48;10.18;;;19.10;99.90;;;;;;5136821;27;20231;-76
2022/08/10 00:26:12;;;;;;;10.48;10.18;;;19.10;99.90;;;;;;5135754;27;20235;-76
2022/08/10 00:28:40;;;;;;;10.52;10.23;;;19.00;99.90;;;;;;5137226;27;20228;-76
2022/08/10 00:31:09;;;;;;;10.27;9.98;;;19.00;99.90;;;;;;5137070;27;20234;-75
2022/08/10 00:33:36;;;;;;;10.73;10.43;;;19.00;99.90;;;;;;5137069;27;20228;-76
2022/08/10 00:36:04;;;;;;;10.60;10.30;;;18.90;99.90;;;;;;5135473;27;20297;-76
2022/08/10 00:38:33;;;;;;;10.60;10.30;;;18.90;99.90;;;;;;5136703;27;20258;-76
2022/08/10 00:41:00;;;;;;;10.60;10.30;;;18.80;99.90;;;;;;5134580;27;20231;-76
2022/08/10 00:43:28;;;;;;;10.57;10.27;;;18.70;99.90;;;;;;5136439;27;20232;-76
2022/08/10 00:45:55;;;;;;;10.20;9.90;;;18.70;99.90;;;;;;5135621;27;20228;-76
2022/08/10 00:48:24;;;;;;;10.50;10.20;;;18.60;99.90;;;;;;5136390;27;20752;-76
2022/08/10 00:50:52;;;;;;;10.10;9.80;;;18.60;99.90;;;;;;5136896;27;20234;-76
2022/08/10 00:53:19;;;;;;;10.27;9.98;;;18.50;99.90;;;;;;5136247;27;20335;-75
2022/08/10 00:55:46;;;;;;;10.45;10.15;;;18.50;99.90;;;;;;5135420;27;20228;-77
2022/08/10 00:58:14;;;;;;;10.15;9.85;;;18.40;99.90;;;;;;5136217;27;20217;-76
2022/08/10 01:00:42;;;;;;;10.27;9.98;;;18.40;99.90;;;;;;5136429;27;20236;-76
2022/08/10 01:03:10;;;;;;;10.15;9.85;;;18.30;99.90;;;;;;5136455;27;20232;-76
2022/08/10 01:05:48;;;;;;;10.10;9.80;;;18.30;99.90;;;;;;5135759;27;20238;-76
2022/08/10 01:08:38;;;;;;;10.10;9.80;;;18.20;99.90;;;;;;5136338;27;20249;-77
2022/08/10 01:11:15;;;;;;;10.23;9.93;;;18.20;99.90;;;;;;5138816;27;20242;-76
2022/08/10 01:13:52;;;;;;;10.05;9.75;;;18.20;99.90;;;;;;5140095;27;20234;-76
2022/08/10 01:16:27;;;;;;;10.25;9.95;;;18.20;99.90;;;;;;5138055;27;20242;-77
2022/08/10 01:19:02;;;;;;;10.27;9.98;;;18.20;99.90;;;;;;5139496;27;20219;-78
2022/08/10 01:22:09;;;;;;;10.05;9.75;;;18.20;99.90;;;;;;5139971;27;20235;-77
2022/08/10 01:25:17;;;;;;;10.30;10.00;;;18.20;99.90;;;;;;5139586;27;20224;-77
2022/08/10 01:27:55;;;;;;;10.15;9.85;;;18.10;99.90;;;;;;5133466;27;20238;-76
2022/08/10 01:30:28;;;;;;;10.13;9.82;;;18.10;99.90;;;;;;5140485;27;20295;-77
2022/08/10 01:33:12;;;;;;;10.43;10.13;;;18.10;99.90;;;;;;5140093;27;20220;-76
2022/08/10 01:35:52;;;;;;;9.93;9.63;;;18.10;99.90;;;;;;5138638;27;20235;-77
2022/08/10 01:38:25;;;;;;;10.23;9.93;;;18.00;99.90;;;;;;5139301;27;20223;-77
2022/08/10 01:40:58;;;;;;;10.20;9.90;;;18.00;99.90;;;;;;5139259;27;20232;-77
2022/08/10 01:43:28;;;;;;;10.20;9.90;;;18.00;99.90;;;;;;5139542;27;20228;-76
2022/08/10 01:46:00;;;;;;;10.48;10.18;;;18.00;99.90;;;;;;5138360;27;20228;-76
2022/08/10 01:48:31;;;;;;;10.23;9.93;;;18.00;99.90;;;;;;5139242;27;20244;-77
2022/08/10 01:51:12;;;;;;;10.63;10.32;;;17.90;99.90;;;;;;5139521;27;20228;-77
2022/08/10 01:53:45;;;;;;;10.52;10.23;;;17.90;99.90;;;;;;5139764;27;20299;-77
2022/08/10 01:56:15;;;;;;;10.55;10.25;;;17.90;99.90;;;;;;5138079;27;20236;-78
2022/08/10 01:58:46;;;;;;;10.40;10.10;;;17.90;99.90;;;;;;5139043;27;20234;-77
2022/08/10 02:01:20;;;;;;;10.60;10.30;;;17.90;99.90;;;;;;5138805;27;20239;-77
2022/08/10 02:03:50;;;;;;;10.50;10.20;;;17.80;99.90;;;;;;5139161;27;20236;-77
2022/08/10 02:06:19;;;;;;;10.52;10.23;;;17.80;99.90;;;;;;5138227;27;20286;-77
2022/08/10 02:08:50;;;;;;;10.45;10.15;;;17.80;99.90;;;;;;5138956;27;20238;-77
2022/08/10 02:11:18;;;;;;;10.80;10.50;;;17.80;99.90;;;;;;5138547;27;20231;-77
2022/08/10 02:13:47;;;;;;;10.52;10.23;;;17.80;99.90;;;;;;5139039;27;20235;-77
2022/08/10 02:16:19;;;;;;;10.20;9.90;;;17.70;99.90;;;;;;5137641;27;20239;-77
2022/08/10 02:18:47;;;;;;;10.45;10.15;;;17.70;99.90;;;;;;5138822;27;20208;-76
2022/08/10 02:21:15;;;;;;;10.20;9.90;;;17.70;99.90;;;;;;5138113;27;20327;-77
2022/08/10 02:23:44;;;;;;;10.40;10.10;;;17.70;99.90;;;;;;5137921;27;20232;-77
2022/08/10 02:26:13;;;;;;;10.30;10.00;;;17.70;99.90;;;;;;5137701;27;20236;-78
2022/08/10 02:28:41;;;;;;;10.23;9.93;;;17.70;99.90;;;;;;5138591;27;20235;-77
2022/08/10 02:31:12;;;;;;;10.25;9.95;;;17.70;99.90;;;;;;5138361;27;20212;-77
2022/08/10 02:33:45;;;;;;;10.23;9.93;;;17.70;99.90;;;;;;5138341;27;20241;-77
2022/08/10 02:36:13;;;;;;;10.32;10.02;;;17.70;99.90;;;;;;5137909;27;20236;-77
2022/08/10 02:38:45;;;;;;;10.15;9.85;;;17.60;99.90;;;;;;5138499;27;20224;-77
2022/08/10 02:41:19;;;;;;;10.32;10.02;;;17.60;99.90;;;;;;5138784;27;20228;-77
2022/08/10 02:43:52;;;;;;;10.43;10.13;;;17.60;99.90;;;;;;5138613;27;20361;-77
2022/08/10 02:46:28;;;;;;;10.43;10.13;;;17.60;99.90;;;;;;5138378;27;20243;-77
2022/08/10 02:49:03;;;;;;;10.40;10.10;;;17.50;99.90;;;;;;5137903;27;20345;-77
2022/08/10 02:51:49;;;;;;;10.00;9.70;;;17.50;99.90;;;;;;5138305;27;20230;-77
2022/08/10 02:54:22;;;;;;;10.40;10.10;;;17.40;99.90;;;;;;5137897;27;20231;-77
2022/08/10 02:56:58;;;;;;;10.13;9.82;;;17.40;99.90;;;;;;5137975;27;20236;-77
2022/08/10 02:59:31;;;;;;;10.40;10.10;;;17.30;99.90;;;;;;5138531;27;20212;-77
2022/08/10 03:02:03;;;;;;;10.35;10.05;;;17.30;99.90;;;;;;5137739;27;20232;-76
2022/08/10 03:04:42;;;;;;;10.00;9.70;;;17.30;99.90;;;;;;5137925;27;20228;-77
2022/08/10 03:07:17;;;;;;;10.32;10.02;;;17.20;99.90;;;;;;5138031;27;20228;-77
2022/08/10 03:09:47;;;;;;;10.40;10.10;;;17.10;99.90;;;;;;5137728;27;20229;-77
2022/08/10 03:12:17;;;;;;;9.80;9.50;;;17.10;99.90;;;;;;5137627;27;20223;-77
2022/08/10 03:14:46;;;;;;;10.10;9.80;;;17.00;99.90;;;;;;5136747;27;20224;-77
2022/08/10 03:17:15;;;;;;;9.98;9.68;;;17.00;99.90;;;;;;5138180;27;20300;-77
2022/08/10 03:19:46;;;;;;;10.00;9.70;;;16.90;99.90;;;;;;5138101;27;20228;-77
2022/08/10 03:22:15;;;;;;;10.30;10.00;;;16.80;99.90;;;;;;5137847;27;20247;-77
2022/08/10 03:24:44;;;;;;;10.20;9.90;;;16.80;99.90;;;;;;5137251;27;20239;-77
2022/08/10 03:27:14;;;;;;;10.13;9.82;;;16.70;99.90;;;;;;5137764;27;20238;-77
2022/08/10 03:29:42;;;;;;;10.02;9.73;;;16.70;99.90;;;;;;5137080;27;20250;-77
2022/08/10 03:32:11;;;;;;;10.15;9.85;;;16.60;99.90;;;;;;5137293;27;20230;-77
2022/08/10 03:34:41;;;;;;;11.00;10.70;;;16.70;99.90;;;;;;5129401;27;20239;-76
2022/08/10 03:37:10;;;;;;;10.95;10.65;;;16.60;99.90;;;;;;5115840;27;20228;-77
2022/08/10 03:39:37;;;;;;;10.85;10.55;;;16.60;99.90;;;;;;5130807;27;20235;-77
2022/08/10 03:42:07;;;;;;;10.98;10.68;;;16.60;99.90;;;;;;5135071;27;20236;-77
2022/08/10 03:44:37;;;;;;;11.02;10.73;;;16.60;99.90;;;;;;5138929;27;20224;-77
2022/08/10 03:47:07;;;;;;;10.82;10.52;;;16.50;99.90;;;;;;5139172;27;20239;-76
2022/08/10 03:49:38;;;;;;;10.80;10.50;;;16.50;99.90;;;;;;5139030;27;20268;-76
2022/08/10 03:52:06;;;;;;;11.18;10.88;;;16.50;99.90;;;;;;5144358;27;20226;-79
2022/08/10 03:54:35;;;;;;;11.40;11.00;;;16.40;99.90;;;;;;5143778;27;20228;-79
2022/08/10 03:57:03;;;;;;;11.05;10.75;;;16.40;99.90;;;;;;5142811;27;20242;-79
2022/08/10 03:59:32;;;;;;;11.10;10.80;;;16.30;99.90;;;;;;5144933;27;20276;-80
2022/08/10 04:02:05;;;;;;;11.25;10.90;;;16.20;99.90;;;;;;5144086;27;20224;-80
2022/08/10 04:04:38;;;;;;;11.18;10.85;;;16.20;99.90;;;;;;5143412;27;20318;-80
2022/08/10 04:07:06;;;;;;;11.20;10.90;;;16.20;99.90;;;;;;5143410;27;20255;-79
2022/08/10 04:09:38;;;;;;;11.10;10.80;;;16.10;99.90;;;;;;5143048;27;20231;-80
2022/08/10 04:12:07;;;;;;;10.30;10.00;;;16.10;99.90;;;;;;5143360;27;20277;-79
2022/08/10 04:14:34;;;;;;;10.35;10.05;;;16.10;99.90;;;;;;5141989;27;20259;-79
2022/08/10 04:17:04;;;;;;;10.65;10.35;;;16.10;99.90;;;;;;5140446;27;20222;-79
2022/08/10 04:19:41;;;;;;;10.60;10.30;;;16.10;99.90;;;;;;5137435;27;20235;-79
2022/08/10 04:22:17;;;;;;;10.40;10.10;;;16.10;99.90;;;;;;5133804;27;20230;-80
2022/08/10 04:24:49;;;;;;;10.40;10.10;;;16.10;99.90;;;;;;5133666;27;20228;-80
2022/08/10 04:27:20;;;;;;;10.20;9.90;;;16.10;99.90;;;;;;5142650;27;20231;-79
2022/08/10 04:29:49;;;;;;;10.27;9.98;;;16.10;99.90;;;;;;5143153;27;20221;-80
2022/08/10 04:32:19;;;;;;;10.23;9.93;;;16.00;99.90;;;;;;5143339;27;20223;-79
2022/08/10 04:34:48;;;;;;;10.63;10.32;;;16.10;99.90;;;;;;5141955;27;20275;-80
2022/08/10 04:37:18;;;;;;;10.50;10.20;;;16.00;99.90;;;;;;5142261;27;20312;-79
2022/08/10 04:39:49;;;;;;;10.63;10.32;;;16.00;99.90;;;;;;5138955;27;20234;-78
2022/08/10 04:42:17;;;;;;;10.80;10.50;;;16.00;99.90;;;;;;5139467;27;20210;-79
2022/08/10 04:44:45;;;;;;;10.70;10.40;;;16.00;99.90;;;;;;5139037;27;20224;-79
2022/08/10 04:47:14;;;;;;;10.80;10.50;;;16.10;99.90;;;;;;5142859;27;20228;-78
2022/08/10 04:49:43;;;;;;;10.85;10.55;;;16.10;99.90;;;;;;5143840;27;20230;-79
2022/08/10 04:52:13;;;;;;;10.77;10.48;;;16.10;99.90;;;;;;5143542;27;20434;-79
2022/08/10 04:54:42;;;;;;;10.77;10.48;;;16.10;99.90;;;;;;5143528;27;20232;-79
2022/08/10 04:57:20;;;;;;;10.52;10.23;;;16.10;99.90;;;;;;5144792;27;20232;-78
2022/08/10 04:59:50;;;;;;;10.50;10.20;;;16.10;99.90;;;;;;5144590;27;20254;-79
2022/08/10 05:02:19;;;;;;;10.25;9.95;;;16.10;99.90;;;;;;5144029;27;20223;-78
2022/08/10 05:04:47;;;;;;;10.55;10.25;;;16.10;99.90;;;;;;5143028;27;20239;-78
2022/08/10 05:07:19;;;;;;;10.23;9.93;;;16.10;99.90;;;;;;5143637;27;20263;-78
2022/08/10 05:09:48;;;;;;;10.32;10.02;;;16.10;99.90;;;;;;5143207;27;20239;-79
2022/08/10 05:12:18;;;;;;;10.77;10.48;;;16.20;99.90;;;;;;5143115;27;20228;-78
2022/08/10 05:14:47;;;;;;;10.55;10.25;;;16.30;99.90;;;;;;5142671;27;20238;-78
2022/08/10 05:17:16;;;;;;;10.68;10.38;;;16.30;99.90;;;;;;5143362;27;20226;-78
2022/08/10 05:19:44;;;;;;;10.90;10.60;;;16.40;99.90;;;;;;5143321;27;20238;-79
2022/08/10 05:22:14;;;;;;;10.60;10.30;;;16.50;99.90;;;;;;5142989;27;20236;-78
2022/08/10 05:24:44;;;;;;;10.65;10.35;;;16.60;99.90;;;;;;5142086;27;20322;-79
2022/08/10 05:27:14;;;;;;;11.13;10.82;;;16.70;99.90;;;;;;5144168;27;20220;-79
2022/08/10 05:29:46;;;;;;;11.10;10.80;;;16.80;99.90;;;;;;5146715;27;20314;-79
2022/08/10 05:32:14;;;;;;;10.82;10.52;;;16.90;99.90;;;;;;5145808;27;20231;-78
2022/08/10 05:34:43;;;;;;;10.90;10.60;;;17.00;99.90;;;;;;5138220;27;20233;-78
2022/08/10 05:37:12;;;;;;;11.20;10.90;;;17.00;99.90;;;;;;5132506;27;20311;-79
2022/08/10 05:39:41;;;;;;;11.23;10.93;;;17.10;99.90;;;;;;5129287;27;20259;-78
2022/08/10 05:42:09;;;;;;;11.25;10.95;;;17.20;99.90;;;;;;5143752;27;20263;-78
2022/08/10 05:44:40;;;;;;;11.05;10.75;;;17.30;99.90;;;;;;5142453;27;20230;-79
2022/08/10 05:47:09;;;;;;;11.10;10.80;;;17.40;99.90;;;;;;5143132;27;20224;-79
2022/08/10 05:49:39;;;;;;;11.13;10.82;;;17.60;99.90;;;;;;5143077;27;20224;-78
2022/08/10 05:52:09;;;;;;;11.13;10.82;;;17.70;99.90;;;;;;5142837;27;20227;-80
2022/08/10 05:54:37;;;;;;;11.23;10.90;;;17.80;99.90;;;;;;5142649;27;20228;-80
2022/08/10 05:57:07;;;;;;;11.27;10.90;;;17.90;99.90;;;;;;5141436;27;20228;-80
2022/08/10 05:59:39;;;;;;;11.15;10.85;;;18.00;99.90;;;;;;5142970;27;20228;-80
2022/08/10 06:02:09;;;;;;;11.10;10.80;;;18.10;99.90;;;;;;5142911;27;20224;-79
2022/08/10 06:04:41;;;;;;;11.20;10.90;;;18.20;99.90;;;;;;5123066;27;20434;-79
2022/08/10 06:07:12;;;;;;;10.75;10.45;;;18.30;99.90;;;;;;5130301;27;20236;-79
2022/08/10 06:09:41;;;;;;;11.00;10.70;;;18.50;99.90;;;;;;5132293;27;20232;-78
2022/08/10 06:12:12;;;;;;;10.88;10.57;;;18.60;99.90;;;;;;5141441;27;20216;-79
2022/08/10 06:17:29;;;;;;;10.90;10.60;;;19.00;99.90;;;;;;5142105;27;20220;-78
2022/08/10 06:19:59;;;;;;;11.00;10.70;;;19.10;99.90;;;;;;5141103;27;20243;-79
2022/08/10 06:22:29;;;;;;;11.15;10.85;;;19.30;99.90;;;;;;5141334;27;20337;-79
2022/08/10 06:24:57;;;;;;;11.05;10.75;;;19.40;99.90;;;;;;5141270;27;20224;-79
2022/08/10 06:27:26;;;;;;;10.98;10.68;;;19.60;99.90;;;;;;5141886;27;20231;-79
2022/08/10 06:29:56;;;;;;;11.00;10.70;;;19.60;99.90;;;;;;5146347;27;20231;-80
2022/08/10 06:32:27;;;;;;;10.90;10.60;;;19.70;99.90;;;;;;5146735;27;20220;-80
2022/08/10 06:34:57;;;;;;;10.98;10.68;;;19.90;99.90;;;;;;5146292;27;20304;-80
2022/08/10 06:37:28;;;;;;;11.13;10.82;;;20.00;99.90;;;;;;5137136;27;21063;-79
2022/08/10 06:39:56;;;;;;;11.20;10.90;;;20.10;99.90;;;;;;5132890;27;20264;-80
2022/08/10 06:42:32;;;;;;;11.30;11.00;;;20.20;99.90;;;;;;5103064;27;20241;-80
2022/08/10 06:45:05;;;;;;;11.27;10.98;;;20.30;99.90;;;;;;5109246;27;20234;-80
2022/08/10 06:47:42;;;;;;;11.15;10.85;;;20.50;99.90;;;;;;5130616;27;20235;-80
2022/08/10 06:50:20;;;;;;;10.95;10.65;;;20.70;99.90;;;;;;5133851;27;20232;-79
2022/08/10 06:52:49;;;;;;;10.90;10.60;;;20.80;99.90;;;;;;5136757;27;20239;-79
2022/08/10 06:55:18;;;;;;;10.85;10.55;;;20.90;99.90;;;;;;5142319;27;20243;-79
2022/08/10 06:57:49;;;;;;;11.13;10.82;;;21.10;99.90;;;;;;5146515;27;20291;-80
2022/08/10 07:00:18;;;;;;;11.15;10.85;;;21.20;99.90;;;;;;5144968;27;20287;-79
2022/08/10 07:02:52;;;;;;;11.20;10.90;;;21.20;99.90;;;;;;5134523;27;20233;-78
2022/08/10 07:05:23;;;;;;;11.27;10.98;;;21.30;99.90;;;;;;5130019;27;20316;-78
2022/08/10 07:07:52;;;;;;;10.90;10.60;;;21.50;99.90;;;;;;5139073;27;20243;-78
2022/08/10 07:10:22;;;;;;;10.75;10.45;;;21.70;99.90;;;;;;5138756;27;20231;-78
2022/08/10 07:12:53;;;;;;;10.80;10.50;;;21.90;99.90;;;;;;5139706;27;20310;-78
2022/08/10 07:15:22;;;;;;;10.75;10.45;;;22.00;99.90;;;;;;5138744;27;20239;-79
2022/08/10 07:17:53;;;;;;;10.80;10.50;;;22.20;99.90;;;;;;5139670;27;20232;-77
2022/08/10 07:20:22;;;;;;;10.52;10.23;;;22.30;99.90;;;;;;5139659;27;20212;-80
2022/08/10 07:22:53;;;;;;;10.60;10.30;;;22.40;99.90;;;;;;5141550;27;20238;-78
2022/08/10 07:25:24;;;;;;;10.70;10.40;;;22.50;99.90;;;;;;5136642;27;20695;-79
2022/08/10 07:27:53;;;;;;;11.05;10.75;;;22.50;99.90;;;;;;5131999;27;20224;-78
2022/08/10 07:30:21;;;;;;;10.90;10.60;;;22.70;99.90;;;;;;5141303;27;20255;-79
2022/08/10 07:32:52;;;;;;;11.20;10.90;;;22.80;99.90;;;;;;5129832;27;20288;-78
2022/08/10 07:35:21;;;;;;;10.73;10.43;;;22.90;99.90;;;;;;5113078;27;20233;-79
2022/08/10 07:37:51;;;;;;;10.98;10.68;;;23.00;99.90;;;;;;5098736;28;20229;-79
2022/08/10 07:40:21;;;;;;;10.90;10.60;;;23.10;99.90;;;;;;5099932;28;20229;-79
2022/08/10 07:42:54;;;;;;;10.95;10.65;;;23.20;99.90;;;;;;5097388;28;20226;-78
2022/08/10 07:45:22;;;;;;;10.50;10.20;;;23.30;99.90;;;;;;5098474;28;20233;-79
2022/08/10 07:47:59;;;;;;;10.90;10.60;;;23.40;99.90;;;;;;5097786;28;20229;-78
2022/08/10 07:50:29;;;;;;;10.80;10.50;;;23.50;99.90;;;;;;5119494;27;20222;-78
2022/08/10 07:53:02;;;;;;;10.60;10.30;;;23.60;99.90;;;;;;5129266;27;20223;-78
2022/08/10 07:55:32;;;;;;;11.10;10.80;;;23.60;99.90;;;;;;5096535;28;20263;-78
2022/08/10 07:58:02;;;;;;;11.05;10.75;;;23.80;99.90;;;;;;5096690;27;20727;-77
2022/08/10 08:00:31;;;;;;;10.93;10.63;;;23.90;99.90;;;;;;5096755;28;20370;-77
2022/08/10 08:03:02;;;;;;;11.20;10.90;;;24.00;99.90;;;;;;5097604;28;20297;-77
2022/08/10 08:05:32;;;;;;;11.45;11.05;;;24.20;99.90;;;;;;5101457;28;20335;-80
2022/08/10 08:08:02;;;;;;;11.15;10.85;;;24.30;99.90;;;;;;5123660;28;20232;-81
2022/08/10 08:10:31;;;;;;;11.00;10.70;;;24.30;99.90;;;;;;5126355;27;20229;-79
2022/08/10 08:13:00;;;;;;;11.15;10.85;;;24.40;99.90;;;;;;5125416;28;20243;-77
2022/08/10 08:15:28;;;;;;;11.00;10.70;;;24.50;99.90;;;;;;5128168;27;20263;-77
2022/08/10 08:17:57;;;;;;;11.15;10.85;;;24.50;99.90;;;;;;5136136;27;20288;-78
2022/08/10 08:20:26;;;;;;;11.27;10.98;;;24.70;99.90;;;;;;5137429;27;20246;-79
2022/08/10 08:22:55;;;;;;;11.47;11.17;;;24.80;99.90;;;;;;5142469;27;20379;-82
2022/08/10 08:25:25;;;;;;;11.00;10.70;;;25.00;99.90;;;;;;5138800;27;20443;-79
2022/08/10 08:27:54;;;;;;;11.13;10.82;;;25.20;99.90;;;;;;5146233;27;20262;-80
2022/08/10 08:30:24;;;;;;;11.20;10.90;;;25.30;99.90;;;;;;5146664;27;20224;-79
2022/08/10 08:32:53;;;;;;;11.02;10.73;;;25.40;99.90;;;;;;5146368;27;20228;-80
2022/08/10 08:35:22;;;;;;;11.20;10.90;;;25.40;99.90;;;;;;5144526;27;20235;-80
2022/08/10 08:37:53;;;;;;;11.23;10.93;;;25.60;99.90;;;;;;5144819;27;20315;-79
2022/08/10 08:40:25;;;;;;;11.18;10.88;;;25.90;99.90;;;;;;5145075;27;20319;-80
2022/08/10 08:43:26;;;;;;;11.13;10.82;;;26.00;99.90;;;;;;5146038;27;20323;-80
2022/08/10 08:46:27;;;;;;;10.90;10.60;;;26.00;99.90;;;;;;5143346;27;20227;-80
2022/08/10 08:49:41;;;;;;;10.90;10.60;;;26.20;99.90;;;;;;5143937;27;20224;-80
2022/08/10 08:52:28;;;;;;;10.90;10.60;;;26.40;99.90;;;;;;5118059;27;20275;-80
2022/08/10 08:55:16;;;;;;;11.10;10.80;;;26.60;99.90;;;;;;5143489;27;20288;-80
2022/08/10 08:57:53;;;;;;;11.30;11.00;;;26.90;99.90;;;;;;5143341;27;20236;-80
2022/08/10 09:00:34;;;;;;;11.23;10.93;;;27.10;99.90;;;;;;5144116;27;20238;-79
2022/08/10 09:03:37;;;;;;;11.43;11.05;;;27.10;99.90;;;;;;5142709;27;20262;-79
2022/08/10 09:06:33;;;;;;;11.45;11.05;;;27.00;99.90;;;;;;5140641;27;20247;-79
2022/08/10 09:09:25;;;;;;;11.57;11.18;;;26.90;99.90;;;;;;5140026;27;20228;-79
2022/08/10 09:12:12;;;;;;;11.10;10.80;;;27.20;99.90;;;;;;5142871;27;20324;-80
2022/08/10 09:14:49;;;;;;;10.50;10.20;;;27.40;99.90;;;;;;5142504;27;20235;-80
2022/08/10 09:17:25;;;;;;;10.60;10.30;;;27.50;99.90;;;;;;5142438;27;20228;-80
2022/08/10 09:20:02;;;;;;;10.73;10.43;;;27.40;99.90;;;;;;5142432;27;20247;-80
2022/08/10 09:22:38;;;;;;;10.68;10.38;;;27.50;99.90;;;;;;5143094;27;20231;-79
2022/08/10 09:25:14;;;;;;;10.70;10.40;;;27.70;99.90;;;;;;5142916;27;20243;-80
2022/08/10 09:27:47;;;;;;;11.27;10.98;;;27.80;99.90;;;;;;5143135;27;20243;-80
2022/08/10 09:30:25;;;;;;;11.10;10.80;;;27.90;99.90;;;;;;5142598;27;20240;-80
2022/08/10 09:33:04;;;;;;;11.13;10.82;;;28.10;99.90;;;;;;5146714;27;20256;-80
2022/08/10 09:35:45;;;;;;;10.93;10.63;;;28.20;99.90;;;;;;5145240;27;20335;-79
2022/08/10 09:38:22;;;;;;;10.98;10.68;;;28.20;99.90;;;;;;5147967;27;20228;-80
2022/08/10 09:40:57;;;;;;;11.13;10.82;;;28.10;99.90;;;;;;5145668;27;20227;-80
2022/08/10 09:43:39;;;;;;;11.50;11.10;;;27.90;99.90;;;;;;5156338;27;20254;-80
2022/08/10 09:46:18;;;;;;;11.27;10.98;;;27.50;99.90;;;;;;5155356;27;20242;-80
2022/08/10 09:49:02;;;;;;;11.20;10.90;;;27.60;99.90;;;;;;5155056;27;20251;-80
2022/08/10 09:51:44;;;;;;;11.48;11.07;;;28.00;99.90;;;;;;5150545;27;20231;-79
2022/08/10 09:54:28;;;;;;;11.40;11.10;;;28.70;99.90;;;;;;5149751;27;20236;-80
2022/08/10 09:57:14;;;;;;;11.25;10.95;;;28.90;99.90;;;;;;5148133;27;20226;-80
2022/08/10 09:59:55;;;;;;;11.10;10.80;;;28.70;99.90;;;;;;5148876;27;20251;-80
2022/08/10 10:02:31;;;;;;;11.30;11.00;;;28.40;99.90;;;;;;5148326;27;20248;-79
2022/08/10 10:05:11;;;;;;;10.52;10.23;;;28.20;99.90;;;;;;5146463;27;20239;-80
2022/08/10 10:07:45;;;;;;;10.77;10.48;;;28.30;99.90;;;;;;5146517;27;20291;-80
2022/08/10 10:10:19;;;;;;;10.50;10.20;;;28.10;99.90;;;;;;5146730;27;20230;-80
2022/08/10 10:12:55;;;;;;;10.60;10.30;;;27.90;99.90;;;;;;5147366;27;20737;-80
2022/08/10 10:15:35;;;;;;;10.60;10.30;;;27.80;99.90;;;;;;5146258;27;20238;-80
2022/08/10 10:18:20;;;;;;;10.02;9.73;;;27.80;99.90;;;;;;5146964;27;20224;-80
2022/08/10 10:21:01;;;;;;;10.98;10.68;;;27.80;99.90;;;;;;5147155;27;20234;-80
2022/08/10 10:23:43;;;;;;;11.10;10.80;;;27.70;99.90;;;;;;5148172;27;20240;-80
2022/08/10 10:26:20;;;;;;;11.13;10.82;;;27.90;99.90;;;;;;5146415;27;20232;-80
2022/08/10 10:29:07;;;;;;;11.18;10.88;;;28.50;99.90;;;;;;5145511;27;20247;-80
2022/08/10 10:31:43;;;;;;;11.20;10.90;;;29.10;99.90;;;;;;5145321;27;20997;-80
2022/08/10 10:34:22;;;;;;;11.10;10.80;;;29.50;99.90;;;;;;5146381;27;20238;-79
2022/08/10 10:36:52;;;;;;;11.30;10.95;;;29.60;99.90;;;;;;5145578;27;20224;-79
2022/08/10 10:39:21;;;;;;;11.48;11.07;;;29.80;99.90;;;;;;5145509;27;20270;-80
2022/08/10 10:41:54;;;;;;;11.75;11.35;;;30.00;99.90;;;;;;5146241;27;20213;-79
2022/08/10 10:44:39;;;;;;;11.40;11.10;;;30.20;99.90;;;;;;5145273;27;20300;-79
2022/08/10 10:47:31;;;;;;;11.23;10.93;;;30.30;99.90;;;;;;5145799;27;20220;-80
2022/08/10 10:50:07;;;;;;;11.05;10.75;;;30.50;99.90;;;;;;5145843;27;20255;-80
2022/08/10 10:52:51;;;;;;;11.15;10.85;;;30.10;99.30;;;;;;5146520;27;20231;-80
2022/08/10 10:55:28;;;;;;;11.13;10.82;;;29.60;99.90;;;;;;5145601;27;20295;-80
2022/08/10 10:58:05;;;;;;;11.30;11.00;;;29.50;99.90;;;;;;5146419;27;20232;-80
2022/08/10 11:00:46;;;;;;;11.07;10.77;;;29.40;99.90;;;;;;5146191;27;21096;-79
2022/08/10 11:03:39;;;;;;;11.20;10.90;;;29.30;99.90;;;;;;5146913;27;20263;-79
2022/08/10 11:06:21;;;;;;;11.35;11.05;;;29.50;99.90;;;;;;5145484;27;20232;-79
2022/08/10 11:08:56;;;;;;;11.13;10.82;;;29.40;99.90;;;;;;5146284;27;20242;-79
2022/08/10 11:11:30;;;;;;;11.30;11.00;;;29.50;99.90;;;;;;5145030;27;21172;-79
2022/08/10 11:14:12;;;;;;;11.13;10.82;;;29.70;98.70;;;;;;5145750;27;20315;-79
2022/08/10 11:16:47;;;;;;;11.10;10.80;;;29.60;99.90;;;;;;5145072;27;20342;-80
2022/08/10 11:19:22;;;;;;;11.07;10.77;;;29.90;98.70;;;;;;5146943;27;20231;-79
2022/08/10 11:22:06;;;;;;;11.10;10.80;;;29.80;99.40;;;;;;5145384;27;20253;-80
2022/08/10 11:24:44;;;;;;;10.90;10.60;;;29.60;99.40;;;;;;5144216;27;20236;-79
2022/08/10 11:27:22;;;;;;;10.80;10.50;;;29.40;98.70;;;;;;5144646;27;20250;-79
2022/08/10 11:29:59;;;;;;;11.30;11.00;;;29.10;98.60;;;;;;5145529;27;20247;-79
2022/08/10 11:32:37;;;;;;;11.10;10.80;;;28.90;98.60;;;;;;5145170;27;20238;-79
2022/08/10 11:35:18;;;;;;;11.20;10.90;;;28.70;98.90;;;;;;5143650;27;20230;-79
2022/08/10 11:37:58;;;;;;;11.32;11.02;;;28.70;99.90;;;;;;5144596;27;20232;-79
2022/08/10 11:40:35;;;;;;;11.20;10.90;;;29.00;99.90;;;;;;5143386;27;20227;-79
2022/08/10 11:43:11;;;;;;;11.32;11.02;;;29.40;98.90;;;;;;5145055;27;20308;-79
2022/08/10 11:45:43;;;;;;;11.45;11.15;;;29.30;97.60;;;;;;5144772;27;20232;-79
2022/08/10 11:48:22;;;;;;;11.68;11.27;;;29.00;97.20;;;;;;5145215;27;20239;-79
2022/08/10 11:50:58;;;;;;;11.60;11.20;;;29.00;98.00;;;;;;5144259;27;20717;-79
2022/08/10 11:53:34;;;;;;;11.75;11.35;;;29.40;97.60;;;;;;5143720;27;20279;-79
2022/08/10 11:56:02;;;;;;;11.35;11.05;;;29.90;97.30;;;;;;5141824;27;20223;-80
2022/08/10 12:01:30;;;;;;;11.20;10.90;;;30.00;95.50;;;;;;5144148;27;20216;-79
2022/08/10 12:04:06;;;;;;;10.80;10.50;;;29.60;96.70;;;;;;5143942;27;20338;-79
2022/08/10 12:06:37;;;;;;;11.00;10.70;;;29.60;96.70;;;;;;5143781;27;20236;-79
2022/08/10 12:09:06;;;;;;;11.20;10.90;;;29.40;96.60;;;;;;5144641;27;20289;-79
2022/08/10 12:11:35;;;;;;;11.23;10.93;;;29.30;95.80;;;;;;5144676;27;20238;-79
2022/08/10 12:14:11;;;;;;;11.20;10.90;;;29.30;95.70;;;;;;5145679;27;20232;-79
2022/08/10 12:16:42;;;;;;;11.35;11.05;;;29.60;95.30;;;;;;5143517;27;20235;-79
2022/08/10 12:19:20;;;;;;;11.35;11.05;;;29.80;94.80;;;;;;5145338;27;20256;-80
2022/08/10 12:21:58;;;;;;;11.48;11.18;;;30.40;95.40;;;;;;5145368;27;20295;-80
2022/08/10 12:24:36;;;;;;;11.30;11.00;;;30.90;94.40;;;;;;5145227;27;20276;-80
2022/08/10 12:27:11;;;;;;;11.50;11.20;;;31.00;95.50;;;;;;5144152;27;20220;-79
2022/08/10 12:29:45;;;;;;;11.57;11.27;;;31.20;95.00;;;;;;5145075;27;20224;-79
2022/08/10 12:32:22;;;;;;;11.52;11.23;;;31.00;95.30;;;;;;5144456;27;20325;-79
2022/08/10 12:34:57;;;;;;;11.57;11.27;;;31.40;94.90;;;;;;5144402;27;20322;-79
2022/08/10 12:37:36;;;;;;;11.75;11.35;;;32.00;94.20;;;;;;5145552;27;20223;-79
2022/08/10 12:40:11;;;;;;;11.45;11.15;;;32.50;94.30;;;;;;5146307;27;20262;-80
2022/08/10 12:42:49;;;;;;;11.63;11.23;;;32.90;94.40;;;;;;5150955;27;20243;-79
2022/08/10 12:45:31;;;;;;;11.50;11.20;;;33.20;93.30;;;;;;5147041;27;20238;-79
2022/08/10 12:48:09;;;;;;;11.82;11.43;;;33.40;92.00;;;;;;5148179;27;20208;-79
2022/08/10 12:50:43;;;;;;;11.98;11.57;;;32.80;93.60;;;;;;5149378;27;20243;-79
2022/08/10 12:53:25;;;;;;;11.95;11.55;;;33.00;93.60;;;;;;5150799;27;20243;-79
2022/08/10 12:55:54;;;;;;;11.68;11.27;;;33.20;92.60;;;;;;5148934;27;20223;-79
2022/08/10 12:58:23;;;;;;;11.80;11.40;;;33.00;92.10;;;;;;5154049;27;20235;-79
2022/08/10 13:00:53;;;;;;;11.10;10.80;;;32.60;91.60;;;;;;5156946;27;20223;-80
2022/08/10 13:03:23;;;;;;;11.20;10.90;;;32.30;91.80;;;;;;5159192;27;20240;-80
2022/08/10 13:05:52;;;;;;;11.05;10.75;;;32.20;94.00;;;;;;5156229;27;20283;-80